MV Thailine 3 — 9WFE9 — position and weather

sailwx.info

Track history (hours):
 
Tides and Currents Weather Stations Pressure Air Temp Water Temp Dewpoint Dewpoint Depression Visibility Wind Speed Wind Dir Waves Ship Positions

MV Thailine 3

Last reported at 2017-Dec-11 17:00 UTC. Time now 2017-Dec-12 02:48 UTC.
Position N 33°51' E 134°60'.

Length 98 m; draft 7 m.

Type: Cargo ship. MMSI: 533391000.

Date/timePositionNaut miles runAvg speedWind from/ knotsBaromVisibWave heightAir tempDewpointWater temp
2017-Dec-11 17:00N 33°51' E 134°60'510.9
2017-Dec-11 16:30N 33°57' E 134°59'611.3
2017-Dec-11 16:00N 34°02' E 134°58'611.8
2017-Dec-11 15:30N 34°08' E 134°58'612.8
2017-Dec-11 15:01N 34°14' E 134°58'612.3
2017-Dec-11 14:30N 34°21' E 134°59'611.8
2017-Dec-11 14:00N 34°26' E 134°60'510.5
2017-Dec-11 13:31N 34°31' E 135°02'611.2
2017-Dec-11 13:00N 34°37' E 135°01'713.5
2017-Dec-11 12:30N 34°35' E 134°53'612.8
2017-Dec-11 12:00N 34°32' E 134°46'612.0
2017-Dec-11 11:30N 34°30' E 134°39'611.7
2017-Dec-11 11:00N 34°28' E 134°33'1311.7
2017-Dec-11 09:53N 34°23' E 134°18'512.3
2017-Dec-11 09:30N 34°24' E 134°12'  
2017-Dec-07 23:50N 34°01' E 132°46'411.2
2017-Dec-07 23:30N 33°58' E 132°43'510.5
2017-Dec-07 23:00N 33°55' E 132°39'510.7
2017-Dec-07 22:30N 33°51' E 132°34'35 9.9
2017-Dec-07 18:56N 33°27' E 132°03'5 8.4
2017-Dec-07 18:24N 33°23' E 131°60'3 7.9
2017-Dec-07 18:00N 33°20' E 131°59'4 7.0
2017-Dec-07 17:24N 33°16' E 132°01'4 8.7
2017-Dec-07 16:58N 33°13' E 132°02'5 9.0
2017-Dec-07 16:25N 33°08' E 132°04'  
2017-Dec-02 16:47N 23°20' E 119°57'4 3.6
2017-Dec-02 15:45N 23°16' E 119°57'17 5.1
2017-Dec-02 12:26N 22°59' E 119°56'3 7.9
2017-Dec-02 12:00N 22°56' E 119°57'4 8.6
2017-Dec-02 11:29N 22°52' E 119°60'4 9.0
2017-Dec-02 11:00N 22°48' E 120°02'5 9.5
2017-Dec-02 10:30N 22°44' E 120°04'5 9.5
2017-Dec-02 10:00N 22°39' E 120°06'5 9.1
2017-Dec-02 09:30N 22°35' E 120°08'5 9.4
2017-Dec-02 09:00N 22°31' E 120°10'5 9.5
2017-Dec-02 08:30N 22°28' E 120°14'511.0
2017-Dec-02 08:00N 22°25' E 120°19'611.3
2017-Dec-02 07:28N 22°22' E 120°25'610.7
2017-Dec-02 06:54N 22°19' E 120°30'  
Track history (hours):
 
Tides and Currents Weather Stations Pressure Air Temp Water Temp Dewpoint Dewpoint Depression Visibility Wind Speed Wind Dir Waves Ship Positions

MV Thailine 3

Last reported at 2017-Dec-11 17:00 UTC. Time now 2017-Dec-12 02:48 UTC.
Position N 33°51' E 134°60'.

Length 98 m; draft 7 m.

Type: Cargo ship. MMSI: 533391000.

Date/timePositionNaut miles runAvg speedWind from/ knotsBaromVisibWave heightAir tempDewpointWater temp
2017-Dec-11 17:00N 33°51' E 134°60'510.9
2017-Dec-11 16:30N 33°57' E 134°59'611.3
2017-Dec-11 16:00N 34°02' E 134°58'611.8
2017-Dec-11 15:30N 34°08' E 134°58'612.8
2017-Dec-11 15:01N 34°14' E 134°58'612.3
2017-Dec-11 14:30N 34°21' E 134°59'611.8
2017-Dec-11 14:00N 34°26' E 134°60'510.5
2017-Dec-11 13:31N 34°31' E 135°02'611.2
2017-Dec-11 13:00N 34°37' E 135°01'713.5
2017-Dec-11 12:30N 34°35' E 134°53'612.8
2017-Dec-11 12:00N 34°32' E 134°46'612.0
2017-Dec-11 11:30N 34°30' E 134°39'611.7
2017-Dec-11 11:00N 34°28' E 134°33'1311.7
2017-Dec-11 09:53N 34°23' E 134°18'512.3
2017-Dec-11 09:30N 34°24' E 134°12'  
2017-Dec-07 23:50N 34°01' E 132°46'411.2
2017-Dec-07 23:30N 33°58' E 132°43'510.5
2017-Dec-07 23:00N 33°55' E 132°39'510.7
2017-Dec-07 22:30N 33°51' E 132°34'35 9.9
2017-Dec-07 18:56N 33°27' E 132°03'5 8.4
2017-Dec-07 18:24N 33°23' E 131°60'3 7.9
2017-Dec-07 18:00N 33°20' E 131°59'4 7.0
2017-Dec-07 17:24N 33°16' E 132°01'4 8.7
2017-Dec-07 16:58N 33°13' E 132°02'5 9.0
2017-Dec-07 16:25N 33°08' E 132°04'  
2017-Dec-02 16:47N 23°20' E 119°57'4 3.6
2017-Dec-02 15:45N 23°16' E 119°57'17 5.1
2017-Dec-02 12:26N 22°59' E 119°56'3 7.9
2017-Dec-02 12:00N 22°56' E 119°57'4 8.6
2017-Dec-02 11:29N 22°52' E 119°60'4 9.0
2017-Dec-02 11:00N 22°48' E 120°02'5 9.5
2017-Dec-02 10:30N 22°44' E 120°04'5 9.5
2017-Dec-02 10:00N 22°39' E 120°06'5 9.1
2017-Dec-02 09:30N 22°35' E 120°08'5 9.4
2017-Dec-02 09:00N 22°31' E 120°10'5 9.5
2017-Dec-02 08:30N 22°28' E 120°14'511.0
2017-Dec-02 08:00N 22°25' E 120°19'611.3
2017-Dec-02 07:28N 22°22' E 120°25'610.7
2017-Dec-02 06:54N 22°19' E 120°30'  

Dump ship's entire track history